Time;durP1;ratioP1;P1;durP2;ratioP2;P2;SDS_P1;SDS_P2;PMS_P1;PMS_P2;Temp;Humidity;BMP_temperature;BMP_pressure;BME280_temperature;BME280_humidity;BME280_pressure;Samples;Min_cycle;Max_cycle;Signal;HPM_P1;HPM_P2
2023/11/16 00:00:32;;;;;;;12.20;3.60;;;8.60;1.00;;;;;;4941644;29;20560;-84
2023/11/16 00:02:58;;;;;;;15.67;4.80;;;8.60;1.00;;;;;;4956153;28;20449;-84
2023/11/16 00:05:25;;;;;;;13.43;3.77;;;8.70;1.00;;;;;;4939305;29;20457;-86
2023/11/16 00:07:53;;;;;;;12.77;3.80;;;8.70;1.00;;;;;;4949420;28;20448;-83
2023/11/16 00:10:19;;;;;;;16.53;4.90;;;8.70;1.00;;;;;;4946685;29;20472;-82
2023/11/16 00:12:45;;;;;;;13.17;4.93;;;8.70;1.00;;;;;;4942111;28;20457;-84
2023/11/16 00:15:11;;;;;;;7.93;3.00;;;8.70;1.00;;;;;;4956295;28;20492;-85
2023/11/16 00:17:37;;;;;;;13.10;3.73;;;8.70;1.00;;;;;;4944187;28;20668;-84
2023/11/16 00:20:09;;;;;;;9.67;3.30;;;8.70;1.00;;;;;;4960286;28;20501;-83
2023/11/16 00:22:34;;;;;;;14.07;3.77;;;8.70;99.90;;;;;;4955968;28;20481;-84
2023/11/16 00:25:03;;;;;;;14.97;2.83;;;8.70;99.90;;;;;;4958205;28;20444;-84
2023/11/16 00:27:28;;;;;;;11.50;3.60;;;8.70;99.90;;;;;;4941675;28;20189;-84
2023/11/16 00:29:54;;;;;;;20.73;3.37;;;8.70;99.90;;;;;;4946061;28;20830;-84
2023/11/16 00:32:19;;;;;;;12.83;4.10;;;8.70;99.90;;;;;;4956611;28;20241;-84
2023/11/16 00:34:45;;;;;;;13.80;3.83;;;8.70;99.90;;;;;;4939433;29;20586;-84
2023/11/16 00:37:11;;;;;;;19.23;3.53;;;8.70;99.90;;;;;;4944189;28;20182;-86
2023/11/16 00:39:40;;;;;;;13.80;2.90;;;8.80;99.90;;;;;;4935583;28;20273;-86
2023/11/16 00:42:10;;;;;;;9.57;3.30;;;8.80;99.90;;;;;;4940846;28;20464;-83
2023/11/16 00:44:35;;;;;;;13.53;3.07;;;8.80;99.90;;;;;;4941915;29;20857;-84
2023/11/16 00:47:01;;;;;;;7.80;2.60;;;8.80;99.90;;;;;;4959337;28;20473;-84
2023/11/16 00:49:27;;;;;;;17.40;3.10;;;8.80;99.90;;;;;;4946755;28;20213;-84
2023/11/16 00:51:53;;;;;;;14.70;3.80;;;8.90;99.90;;;;;;4945123;28;20206;-86
2023/11/16 00:54:19;;;;;;;7.50;3.50;;;8.90;99.90;;;;;;4951681;28;20472;-85
2023/11/16 00:56:45;;;;;;;12.67;3.47;;;8.90;99.90;;;;;;4951798;29;20181;-86
2023/11/16 00:59:11;;;;;;;8.90;3.67;;;8.90;99.90;;;;;;4944759;28;20468;-84
2023/11/16 01:01:39;;;;;;;9.03;3.20;;;9.00;99.90;;;;;;4943619;28;20301;-87
2023/11/16 01:04:06;;;;;;;18.33;3.50;;;9.00;99.90;;;;;;4947168;28;20200;-84
2023/11/16 01:06:32;;;;;;;8.30;2.90;;;9.00;99.90;;;;;;4944459;29;20454;-84
2023/11/16 01:08:59;;;;;;;12.83;5.67;;;9.00;99.90;;;;;;4947966;28;20484;-84
2023/11/16 01:11:27;;;;;;;10.70;3.80;;;9.00;99.90;;;;;;4945573;28;20229;-84
2023/11/16 01:14:03;;;;;;;7.67;3.27;;;9.00;99.90;;;;;;4962570;28;20529;-85
2023/11/16 01:16:40;;;;;;;11.77;3.67;;;9.00;99.90;;;;;;4945585;28;20432;-84
2023/11/16 01:19:08;;;;;;;14.47;3.60;;;9.00;99.90;;;;;;4944700;28;20476;-85
2023/11/16 01:21:41;;;;;;;10.80;4.57;;;9.00;99.90;;;;;;4943434;28;20485;-87
2023/11/16 01:24:08;;;;;;;16.90;3.20;;;9.00;99.90;;;;;;4962781;28;20452;-84
2023/11/16 01:26:35;;;;;;;10.37;3.47;;;9.00;99.90;;;;;;4949083;28;20556;-84
2023/11/16 01:29:08;;;;;;;8.57;3.30;;;9.00;99.90;;;;;;4943577;28;20467;-84
2023/11/16 01:31:39;;;;;;;5.90;2.83;;;9.00;99.90;;;;;;4949407;28;20476;-85
2023/11/16 01:34:10;;;;;;;7.87;3.63;;;9.00;99.90;;;;;;4945794;29;20553;-84
2023/11/16 01:36:39;;;;;;;11.10;3.57;;;9.00;99.90;;;;;;4946330;28;20800;-84
2023/11/16 01:39:06;;;;;;;13.30;3.80;;;9.00;99.90;;;;;;4967189;28;21026;-84
2023/11/16 01:41:35;;;;;;;12.80;3.50;;;8.90;99.90;;;;;;4939127;29;20466;-84
2023/11/16 01:44:00;;;;;;;9.17;3.30;;;8.90;99.90;;;;;;4941727;28;20992;-84
2023/11/16 01:46:26;;;;;;;11.53;3.50;;;8.90;99.90;;;;;;4960314;28;20480;-86
2023/11/16 01:48:54;;;;;;;11.13;3.47;;;8.80;99.90;;;;;;4943475;28;20320;-84
2023/11/16 01:51:21;;;;;;;9.33;3.20;;;8.80;99.90;;;;;;4945905;28;21058;-83
2023/11/16 01:53:54;;;;;;;8.10;3.33;;;8.80;99.90;;;;;;4942050;28;20905;-84
2023/11/16 01:56:20;;;;;;;7.07;3.03;;;8.80;99.90;;;;;;4947135;29;20455;-85
2023/11/16 01:58:52;;;;;;;23.93;3.63;;;8.80;99.90;;;;;;4945252;28;20438;-84
2023/11/16 02:01:19;;;;;;;10.97;3.77;;;8.90;99.90;;;;;;4954410;28;20462;-85
2023/11/16 02:03:48;;;;;;;11.57;3.97;;;8.90;99.90;;;;;;4948875;28;20461;-84
2023/11/16 02:06:16;;;;;;;11.87;4.00;;;8.90;99.90;;;;;;4946850;28;21091;-84
2023/11/16 02:08:42;;;;;;;17.23;4.10;;;8.90;99.90;;;;;;4946163;28;20441;-84
2023/11/16 02:11:07;;;;;;;8.77;3.53;;;8.90;99.90;;;;;;4950135;28;20473;-86
2023/11/16 02:13:34;;;;;;;15.07;4.77;;;8.90;99.90;;;;;;4942291;28;20208;-84
2023/11/16 02:16:00;;;;;;;8.60;3.37;;;8.90;99.90;;;;;;4943056;28;20186;-83
2023/11/16 02:18:25;;;;;;;10.33;3.40;;;9.00;99.90;;;;;;4949385;28;20437;-84
2023/11/16 02:20:55;;;;;;;17.10;3.60;;;9.00;99.90;;;;;;4948144;29;20516;-82
2023/11/16 02:23:21;;;;;;;17.53;3.80;;;9.00;99.90;;;;;;4961196;28;20281;-85
2023/11/16 02:25:50;;;;;;;9.50;3.00;;;9.00;99.90;;;;;;4941910;28;21069;-84
2023/11/16 02:28:17;;;;;;;9.73;3.00;;;9.00;99.90;;;;;;4939398;29;20445;-84
2023/11/16 02:30:43;;;;;;;9.80;3.33;;;9.00;99.90;;;;;;4941423;29;20457;-84
2023/11/16 02:33:09;;;;;;;10.60;3.00;;;9.00;99.90;;;;;;4954153;28;20491;-84
2023/11/16 02:35:35;;;;;;;13.80;4.07;;;9.00;99.90;;;;;;4941503;28;20497;-83
2023/11/16 02:38:01;;;;;;;16.73;2.90;;;9.10;99.90;;;;;;4944168;28;20437;-84
2023/11/16 02:40:27;;;;;;;14.07;3.60;;;9.10;99.90;;;;;;4938416;29;20801;-86
2023/11/16 02:42:53;;;;;;;11.57;3.70;;;9.10;99.90;;;;;;4953823;28;20434;-84
2023/11/16 02:45:26;;;;;;;9.67;3.70;;;9.10;99.90;;;;;;4943486;29;21076;-84
2023/11/16 02:47:54;;;;;;;11.50;3.43;;;9.10;99.90;;;;;;4938465;28;20460;-83
2023/11/16 02:50:22;;;;;;;8.40;3.13;;;9.10;99.90;;;;;;4944757;28;21047;-86
2023/11/16 02:52:48;;;;;;;8.70;3.10;;;9.00;99.90;;;;;;4938032;29;20474;-84
2023/11/16 02:55:15;;;;;;;9.53;3.53;;;9.00;99.90;;;;;;4953936;28;20473;-86
2023/11/16 02:57:41;;;;;;;7.40;2.93;;;9.00;99.90;;;;;;4947893;29;20442;-84
2023/11/16 03:00:11;;;;;;;9.40;3.43;;;9.00;99.90;;;;;;4936271;29;20875;-86
2023/11/16 03:02:40;;;;;;;8.00;3.37;;;9.00;99.90;;;;;;4942988;29;20182;-84
2023/11/16 03:05:18;;;;;;;11.40;4.00;;;8.90;99.90;;;;;;4957679;28;20457;-83
2023/11/16 03:07:44;;;;;;;18.27;3.43;;;8.90;99.90;;;;;;4941746;28;20445;-84
2023/11/16 03:10:13;;;;;;;14.10;3.80;;;8.90;99.90;;;;;;4939857;28;20496;-85
2023/11/16 03:12:40;;;;;;;12.83;3.73;;;8.90;99.90;;;;;;4936194;28;20194;-84
2023/11/16 03:15:06;;;;;;;10.63;3.00;;;8.90;99.90;;;;;;4936488;28;20476;-84
2023/11/16 03:17:32;;;;;;;12.13;3.63;;;8.90;99.90;;;;;;4944911;28;20448;-85
2023/11/16 03:19:58;;;;;;;10.80;4.10;;;8.80;99.90;;;;;;4943511;28;20541;-84
2023/11/16 03:22:25;;;;;;;10.60;4.83;;;8.80;1.00;;;;;;4942292;28;20682;-87
2023/11/16 03:24:52;;;;;;;20.87;4.83;;;8.80;1.00;;;;;;4942056;28;20192;-84
2023/11/16 03:27:18;;;;;;;24.03;3.70;;;8.80;1.00;;;;;;4942098;29;20491;-85
2023/11/16 03:29:44;;;;;;;8.70;3.60;;;8.70;1.00;;;;;;4944574;28;20445;-84
2023/11/16 03:32:10;;;;;;;9.10;3.03;;;8.70;1.00;;;;;;4941154;28;20290;-85
2023/11/16 03:34:35;;;;;;;10.33;3.60;;;8.70;1.00;;;;;;4946438;28;21075;-84
2023/11/16 03:37:04;;;;;;;9.97;3.17;;;8.70;1.00;;;;;;4949699;28;20646;-84
2023/11/16 03:39:34;;;;;;;8.70;3.93;;;8.70;1.00;;;;;;4958283;28;20320;-84
2023/11/16 03:42:03;;;;;;;15.97;4.10;;;8.70;1.00;;;;;;4945060;28;20848;-83
2023/11/16 03:44:29;;;;;;;11.13;3.60;;;8.60;1.00;;;;;;4943010;28;20439;-88
2023/11/16 03:46:55;;;;;;;11.13;3.30;;;8.60;1.00;;;;;;4945618;28;20993;-84
2023/11/16 03:49:22;;;;;;;10.13;4.77;;;8.60;1.00;;;;;;4960298;28;20858;-85
2023/11/16 03:51:48;;;;;;;16.70;3.70;;;8.60;1.00;;;;;;4963861;28;20496;-85
2023/11/16 03:54:15;;;;;;;7.00;3.23;;;8.60;1.00;;;;;;4947194;29;21034;-84
2023/11/16 03:56:41;;;;;;;16.73;5.10;;;8.50;1.00;;;;;;4949775;28;20440;-84
2023/11/16 03:59:06;;;;;;;14.70;3.77;;;8.50;1.00;;;;;;4947107;28;20448;-83
2023/11/16 04:01:35;;;;;;;16.83;3.63;;;8.50;1.00;;;;;;4943802;28;20696;-82
2023/11/16 04:04:01;;;;;;;14.13;4.13;;;8.40;1.00;;;;;;4944010;29;20199;-84
2023/11/16 04:06:29;;;;;;;12.40;3.67;;;8.40;1.00;;;;;;4954849;28;20838;-84
2023/11/16 04:08:56;;;;;;;12.68;3.72;;;8.50;1.00;;;;;;4946482;28;20201;-84
2023/11/16 04:11:23;;;;;;;13.63;3.50;;;8.40;1.00;;;;;;4943008;28;20206;-84
2023/11/16 04:13:48;;;;;;;11.43;4.13;;;8.40;1.00;;;;;;4946625;28;20449;-84
2023/11/16 04:16:23;;;;;;;15.30;4.07;;;8.40;1.00;;;;;;4956688;28;20448;-85
2023/11/16 04:18:53;;;;;;;12.37;3.40;;;8.40;1.00;;;;;;4947733;28;20178;-87
2023/11/16 04:21:19;;;;;;;6.33;2.80;;;8.40;1.00;;;;;;4951525;28;20484;-87
2023/11/16 04:23:56;;;;;;;11.00;3.63;;;8.40;1.00;;;;;;4945505;28;20442;-85
2023/11/16 04:26:23;;;;;;;12.18;3.53;;;8.40;1.00;;;;;;4965887;28;20689;-84
2023/11/16 04:28:51;;;;;;;12.30;3.17;;;8.40;1.00;;;;;;4948286;29;20200;-84
2023/11/16 04:31:17;;;;;;;17.13;3.73;;;8.40;1.00;;;;;;4946624;29;20554;-84
2023/11/16 04:33:43;;;;;;;10.55;3.17;;;8.40;1.00;;;;;;4951573;28;20569;-85
2023/11/16 04:36:09;;;;;;;11.70;3.27;;;8.40;1.00;;;;;;4938495;29;20205;-84
2023/11/16 04:38:34;;;;;;;11.65;3.28;;;8.40;1.00;;;;;;4951694;28;20186;-84
2023/11/16 04:41:02;;;;;;;7.67;2.60;;;8.40;1.00;;;;;;4949642;29;20787;-85
2023/11/16 04:43:30;;;;;;;8.48;3.30;;;8.30;1.00;;;;;;4946535;29;20212;-85
2023/11/16 04:45:56;;;;;;;16.08;3.83;;;8.30;1.00;;;;;;4961640;28;20577;-84
2023/11/16 04:48:21;;;;;;;8.83;3.17;;;8.30;1.00;;;;;;4953221;28;20185;-85
2023/11/16 04:50:48;;;;;;;13.03;3.30;;;8.30;1.00;;;;;;4944113;29;20495;-87
2023/11/16 04:53:14;;;;;;;20.30;3.80;;;8.30;1.00;;;;;;4947114;28;20181;-87
2023/11/16 04:55:39;;;;;;;19.67;4.70;;;8.30;1.00;;;;;;4945923;28;20469;-84
2023/11/16 04:58:05;;;;;;;20.60;3.60;;;8.30;1.00;;;;;;4954025;28;20441;-84
2023/11/16 05:00:31;;;;;;;14.53;3.23;;;8.30;1.00;;;;;;4963784;28;20256;-83
2023/11/16 05:02:56;;;;;;;9.23;3.20;;;8.30;1.00;;;;;;4944865;28;20182;-83
2023/11/16 05:05:22;;;;;;;6.63;2.97;;;8.20;1.00;;;;;;4946255;29;21046;-84
2023/11/16 05:07:48;;;;;;;8.38;3.30;;;8.20;1.00;;;;;;4947524;28;20185;-84
2023/11/16 05:10:16;;;;;;;15.70;3.73;;;8.20;1.00;;;;;;4939916;29;20210;-87
2023/11/16 05:12:41;;;;;;;11.25;3.55;;;8.20;1.00;;;;;;4944138;28;20181;-85
2023/11/16 05:15:10;;;;;;;8.00;3.57;;;8.20;1.00;;;;;;4945102;29;20216;-86
2023/11/16 05:17:36;;;;;;;7.07;3.08;;;8.20;1.00;;;;;;4941313;29;20186;-84
2023/11/16 05:20:02;;;;;;;10.53;3.20;;;8.20;1.00;;;;;;4943385;29;20656;-84
2023/11/16 05:22:27;;;;;;;7.38;3.50;;;8.20;1.00;;;;;;4940056;29;20201;-84
2023/11/16 05:24:53;;;;;;;11.80;3.33;;;8.20;1.00;;;;;;4940581;29;20186;-83
2023/11/16 05:27:19;;;;;;;8.47;2.40;;;8.20;1.00;;;;;;4940570;29;20688;-84
2023/11/16 05:29:45;;;;;;;8.50;4.13;;;8.20;1.00;;;;;;4936968;29;20201;-85
2023/11/16 05:32:11;;;;;;;14.00;3.80;;;8.20;1.00;;;;;;4959891;28;20544;-84
2023/11/16 05:34:37;;;;;;;10.80;2.87;;;8.20;1.00;;;;;;4941659;28;20889;-85
2023/11/16 05:37:03;;;;;;;18.37;4.90;;;8.20;1.00;;;;;;4956181;28;20190;-83
2023/11/16 05:39:28;;;;;;;9.30;3.83;;;8.20;1.00;;;;;;4966021;28;20437;-84
2023/11/16 05:41:54;;;;;;;11.27;3.67;;;8.30;1.00;;;;;;4944430;28;20237;-84
2023/11/16 05:44:21;;;;;;;7.20;2.90;;;8.40;1.00;;;;;;4944206;28;20442;-83
2023/11/16 05:46:46;;;;;;;14.13;3.63;;;8.40;1.00;;;;;;4944361;28;20193;-84
2023/11/16 05:49:13;;;;;;;9.43;3.43;;;8.40;1.00;;;;;;4943870;28;20660;-83
2023/11/16 05:51:39;;;;;;;6.60;3.33;;;8.50;1.00;;;;;;4956205;28;20208;-84
2023/11/16 05:54:07;;;;;;;8.40;3.60;;;8.50;1.00;;;;;;4947690;29;20481;-86
2023/11/16 05:56:40;;;;;;;10.53;3.63;;;8.50;1.00;;;;;;4948211;29;20192;-84
2023/11/16 05:59:09;;;;;;;7.73;3.37;;;8.50;1.00;;;;;;4947162;28;20440;-84
2023/11/16 06:01:37;;;;;;;9.90;3.23;;;8.50;1.00;;;;;;4947453;28;20461;-84
2023/11/16 06:04:07;;;;;;;10.60;3.20;;;8.50;99.90;;;;;;4936315;28;20469;-84
2023/11/16 06:06:33;;;;;;;9.90;2.87;;;8.60;99.90;;;;;;4937762;29;20987;-85
2023/11/16 06:08:58;;;;;;;10.23;3.00;;;8.60;99.90;;;;;;4945327;28;20441;-83
2023/11/16 06:11:24;;;;;;;9.80;3.50;;;8.60;99.90;;;;;;4946310;28;20543;-85
2023/11/16 06:13:50;;;;;;;10.43;2.90;;;8.60;99.90;;;;;;4942267;28;20182;-84
2023/11/16 06:16:15;;;;;;;14.30;3.20;;;8.60;99.90;;;;;;4941372;28;20181;-83
2023/11/16 06:18:41;;;;;;;9.40;3.33;;;8.60;99.90;;;;;;4936289;28;20194;-84
2023/11/16 06:21:06;;;;;;;19.43;4.70;;;8.60;99.90;;;;;;4935898;28;20213;-84
2023/11/16 06:23:33;;;;;;;8.90;2.97;;;8.60;99.90;;;;;;4943913;28;20220;-85
2023/11/16 06:25:59;;;;;;;7.37;2.97;;;8.70;99.90;;;;;;4941839;28;20244;-84
2023/11/16 06:28:24;;;;;;;10.00;3.30;;;8.70;99.90;;;;;;4953842;28;20445;-84
2023/11/16 06:30:50;;;;;;;20.93;3.27;;;8.70;99.90;;;;;;4933052;28;20230;-84
2023/11/16 06:33:16;;;;;;;8.53;3.17;;;8.70;99.90;;;;;;4936849;29;20256;-83
2023/11/16 06:35:45;;;;;;;8.87;3.73;;;8.70;99.90;;;;;;4934980;29;20512;-84
2023/11/16 06:38:13;;;;;;;10.90;3.33;;;8.70;99.90;;;;;;4934308;28;20190;-83
2023/11/16 06:40:38;;;;;;;9.23;3.93;;;8.70;99.90;;;;;;4942960;28;20212;-83
2023/11/16 06:43:04;;;;;;;10.53;3.60;;;8.70;99.90;;;;;;4958895;28;20445;-85
2023/11/16 06:45:48;;;;;;;12.70;4.03;;;8.70;99.90;;;;;;4944342;28;20201;-84
2023/11/16 06:48:27;;;;;;;8.97;3.80;;;8.80;99.90;;;;;;4938559;28;20189;-86
2023/11/16 06:50:59;;;;;;;16.67;3.33;;;8.80;99.90;;;;;;4937490;29;20479;-83
2023/11/16 06:53:25;;;;;;;10.63;3.77;;;8.80;99.90;;;;;;4942436;28;20453;-84
2023/11/16 06:55:52;;;;;;;5.17;3.20;;;8.80;99.90;;;;;;4940645;29;20479;-84
2023/11/16 06:58:20;;;;;;;11.03;4.00;;;8.80;99.90;;;;;;4936674;28;20448;-84
2023/11/16 07:00:50;;;;;;;9.67;3.33;;;8.80;99.90;;;;;;4935932;28;20503;-84
2023/11/16 07:03:16;;;;;;;9.90;3.20;;;8.90;99.90;;;;;;4936185;28;20452;-85
2023/11/16 07:05:41;;;;;;;12.80;3.70;;;8.90;99.90;;;;;;4940919;28;20445;-86
2023/11/16 07:08:07;;;;;;;10.40;3.60;;;9.00;99.90;;;;;;4953893;28;20504;-85
2023/11/16 07:10:32;;;;;;;9.60;3.27;;;9.10;99.90;;;;;;4957621;28;20201;-84
2023/11/16 07:13:02;;;;;;;11.80;3.73;;;9.10;99.90;;;;;;4954541;28;20193;-85
2023/11/16 07:15:28;;;;;;;14.97;3.70;;;9.20;99.90;;;;;;4953168;28;20287;-84
2023/11/16 07:17:54;;;;;;;11.37;3.57;;;9.20;43.20;;;;;;4939905;29;20555;-84
2023/11/16 07:20:21;;;;;;;13.40;3.13;;;9.20;1.00;;;;;;4951863;28;20457;-85
2023/11/16 07:22:49;;;;;;;6.30;2.87;;;9.30;1.00;;;;;;4942026;29;20452;-83
2023/11/16 07:25:20;;;;;;;5.13;3.37;;;9.30;1.00;;;;;;4939619;28;20442;-85
2023/11/16 07:27:45;;;;;;;11.23;3.83;;;9.30;1.00;;;;;;4937586;28;20466;-85
2023/11/16 07:30:12;;;;;;;9.40;3.40;;;9.40;1.00;;;;;;4953388;28;20511;-85
2023/11/16 07:32:37;;;;;;;10.90;3.60;;;9.40;1.00;;;;;;4934329;29;20221;-84
2023/11/16 07:35:14;;;;;;;6.73;3.37;;;9.50;1.00;;;;;;4956858;28;20819;-84
2023/11/16 07:37:44;;;;;;;14.43;3.67;;;9.60;1.00;;;;;;4949943;28;20718;-84
2023/11/16 07:40:15;;;;;;;10.07;3.30;;;9.70;99.90;;;;;;4937048;28;20520;-85
2023/11/16 07:42:41;;;;;;;9.00;4.00;;;9.80;99.90;;;;;;4944517;28;20433;-84
2023/11/16 07:45:15;;;;;;;15.00;5.90;;;10.10;96.00;;;;;;4947527;28;20449;-85
2023/11/16 07:47:43;;;;;;;13.33;8.07;;;10.20;1.00;;;;;;4951564;28;20528;-84
2023/11/16 07:50:12;;;;;;;13.17;5.63;;;10.50;99.90;;;;;;4934186;28;20449;-84
2023/11/16 07:52:47;;;;;;;12.90;6.00;;;10.50;99.90;;;;;;4960348;28;21001;-84
2023/11/16 07:55:18;;;;;;;8.93;4.30;;;10.60;1.00;;;;;;4963094;28;20981;-84
2023/11/16 07:57:48;;;;;;;11.03;5.37;;;10.70;99.90;;;;;;4947078;28;20440;-84
2023/11/16 08:00:30;;;;;;;17.63;4.93;;;10.70;1.00;;;;;;4952794;28;20450;-85
2023/11/16 08:05:43;;;;;;;8.83;5.00;;;11.10;1.00;;;;;;4947860;29;20453;-84
2023/11/16 08:08:12;;;;;;;11.10;3.97;;;11.40;99.90;;;;;;4965411;28;20487;-85
2023/11/16 08:10:45;;;;;;;8.17;3.80;;;11.70;1.00;;;;;;4954853;28;20464;-85
2023/11/16 08:13:11;;;;;;;8.77;3.87;;;12.10;99.90;;;;;;4945285;29;20508;-84
2023/11/16 08:15:40;;;;;;;10.53;3.40;;;12.60;1.00;;;;;;4952431;28;20516;-84
2023/11/16 08:18:10;;;;;;;21.87;7.20;;;13.00;1.00;;;;;;4943472;28;20449;-85
2023/11/16 08:20:36;;;;;;;9.07;4.00;;;13.30;99.90;;;;;;4965875;28;20464;-84
2023/11/16 08:23:02;;;;;;;38.23;18.00;;;13.40;99.90;;;;;;4944462;28;20449;-84
2023/11/16 08:25:28;;;;;;;8.07;3.37;;;13.50;39.70;;;;;;4951469;29;20445;-84
2023/11/16 08:27:54;;;;;;;8.57;3.17;;;13.60;1.00;;;;;;4948699;28;20474;-84
2023/11/16 08:30:22;;;;;;;7.00;2.90;;;13.60;1.00;;;;;;4943131;28;21914;-84
2023/11/16 08:32:48;;;;;;;10.33;2.77;;;13.50;1.00;;;;;;4965600;28;20461;-84
2023/11/16 08:35:15;;;;;;;6.60;2.83;;;13.40;1.00;;;;;;4950277;28;20469;-85
2023/11/16 08:37:44;;;;;;;10.63;5.33;;;13.30;1.00;;;;;;4950894;28;20468;-84
2023/11/16 08:40:12;;;;;;;13.03;7.27;;;13.40;1.00;;;;;;4958091;28;20457;-84
2023/11/16 08:42:43;;;;;;;10.67;4.43;;;13.80;1.00;;;;;;4944091;29;20808;-85
2023/11/16 08:45:24;;;;;;;10.70;4.50;;;14.60;1.00;;;;;;4955031;29;20468;-85
2023/11/16 08:47:57;;;;;;;10.40;3.20;;;15.80;1.00;;;;;;4937798;28;20445;-86
2023/11/16 08:50:23;;;;;;;13.30;7.83;;;17.70;99.90;;;;;;4950964;28;20470;-85
2023/11/16 08:52:49;;;;;;;11.43;6.90;;;18.20;99.90;;;;;;4943601;29;20448;-84
2023/11/16 08:55:21;;;;;;;6.93;3.87;;;17.60;99.90;;;;;;4942838;28;20226;-85
2023/11/16 08:57:53;;;;;;;17.23;4.63;;;17.00;99.90;;;;;;4940222;28;20457;-85
2023/11/16 09:00:28;;;;;;;11.50;4.10;;;16.30;99.90;;;;;;4941623;29;20950;-84
2023/11/16 09:02:59;;;;;;;9.57;3.97;;;15.50;99.90;;;;;;4956843;28;20441;-84
2023/11/16 09:05:26;;;;;;;13.40;4.40;;;14.80;99.90;;;;;;4938316;29;20433;-86
2023/11/16 09:07:52;;;;;;;15.23;4.93;;;14.20;99.90;;;;;;4943514;29;20602;-85
2023/11/16 09:10:20;;;;;;;11.13;5.97;;;13.80;99.90;;;;;;4944658;29;20468;-85
2023/11/16 09:12:47;;;;;;;14.53;4.27;;;13.30;1.00;;;;;;4953302;28;20190;-85
2023/11/16 09:15:13;;;;;;;7.27;3.57;;;13.10;1.00;;;;;;4958311;28;20476;-85
2023/11/16 09:17:39;;;;;;;7.97;3.30;;;12.90;1.00;;;;;;4945619;29;20433;-86
2023/11/16 09:20:10;;;;;;;9.40;4.10;;;12.70;1.00;;;;;;4950429;28;20503;-83
2023/11/16 09:22:36;;;;;;;13.50;3.77;;;12.70;1.00;;;;;;4941990;28;20186;-85
2023/11/16 09:25:24;;;;;;;11.30;3.87;;;12.60;1.00;;;;;;4955502;28;20437;-85
2023/11/16 09:27:50;;;;;;;9.73;3.60;;;12.30;1.00;;;;;;4941708;29;20458;-86
2023/11/16 09:30:22;;;;;;;10.10;3.40;;;12.10;1.00;;;;;;4950517;28;20950;-86
2023/11/16 09:32:51;;;;;;;5.63;3.47;;;12.10;15.00;;;;;;4939764;28;20453;-86
2023/11/16 09:35:21;;;;;;;9.50;4.13;;;12.10;53.80;;;;;;4940812;29;20469;-85
2023/11/16 09:37:51;;;;;;;12.90;4.00;;;12.20;80.70;;;;;;4952129;28;20527;-85
2023/11/16 09:40:22;;;;;;;10.23;3.70;;;12.00;99.90;;;;;;4941433;28;20499;-84
2023/11/16 09:42:57;;;;;;;18.30;4.97;;;11.90;99.90;;;;;;4953655;28;20983;-84
2023/11/16 09:45:23;;;;;;;16.57;4.47;;;11.90;99.90;;;;;;4946523;28;20861;-84
2023/11/16 09:48:06;;;;;;;10.23;4.10;;;11.80;99.90;;;;;;4949534;28;20448;-85
2023/11/16 09:50:36;;;;;;;10.80;4.00;;;11.70;99.90;;;;;;4934934;29;20541;-83
2023/11/16 09:53:02;;;;;;;10.73;4.50;;;11.60;99.90;;;;;;4962536;28;20818;-84
2023/11/16 09:55:32;;;;;;;40.23;22.97;;;11.30;99.90;;;;;;4940679;28;20525;-84
2023/11/16 09:58:08;;;;;;;64.37;38.60;;;11.20;1.00;;;;;;4941379;28;20440;-85
2023/11/16 10:00:34;;;;;;;16.70;9.80;;;11.20;1.00;;;;;;4960516;28;20882;-84
2023/11/16 10:03:04;;;;;;;70.83;45.63;;;11.20;1.00;;;;;;4942731;29;20818;-84
2023/11/16 10:05:34;;;;;;;30.10;16.60;;;11.20;1.00;;;;;;4950102;28;20441;-85
2023/11/16 10:08:14;;;;;;;12.80;6.20;;;11.10;99.90;;;;;;4956822;28;20532;-85
2023/11/16 10:10:54;;;;;;;13.30;4.00;;;10.80;99.90;;;;;;4938695;28;20496;-84
2023/11/16 10:13:21;;;;;;;11.63;5.37;;;10.60;1.00;;;;;;4941768;28;20499;-84
2023/11/16 10:15:48;;;;;;;10.20;3.67;;;10.50;1.00;;;;;;4944191;29;20552;-85
2023/11/16 10:18:13;;;;;;;4.63;2.80;;;10.50;1.00;;;;;;4948982;28;20537;-86
2023/11/16 10:20:43;;;;;;;10.00;3.13;;;10.50;99.90;;;;;;4940662;29;20552;-84
2023/11/16 10:23:11;;;;;;;12.77;4.87;;;10.60;94.70;;;;;;4940804;29;20570;-84
2023/11/16 10:25:37;;;;;;;11.33;4.57;;;10.60;99.90;;;;;;4938126;28;20449;-85
2023/11/16 10:28:14;;;;;;;8.17;4.40;;;10.60;99.90;;;;;;4966151;28;20449;-85
2023/11/16 10:30:43;;;;;;;9.93;3.50;;;10.70;99.90;;;;;;4955744;28;20489;-85
2023/11/16 10:33:10;;;;;;;11.60;3.60;;;10.70;1.00;;;;;;4941156;28;20521;-86
2023/11/16 10:35:38;;;;;;;18.70;4.20;;;10.70;1.00;;;;;;4940251;28;20881;-85
2023/11/16 10:38:06;;;;;;;24.20;5.50;;;10.80;99.90;;;;;;4955193;28;20453;-85
2023/11/16 10:40:33;;;;;;;16.93;4.60;;;10.80;99.90;;;;;;4940574;29;21062;-85
2023/11/16 10:43:00;;;;;;;12.10;4.10;;;10.80;99.90;;;;;;4935611;29;20445;-85
2023/11/16 10:45:27;;;;;;;16.10;4.70;;;10.80;99.90;;;;;;4966591;28;20445;-85
2023/11/16 10:47:53;;;;;;;19.90;4.87;;;10.80;99.90;;;;;;4944493;28;20531;-85
2023/11/16 10:50:18;;;;;;;27.30;7.03;;;10.70;99.90;;;;;;4944124;28;20460;-84
2023/11/16 10:52:47;;;;;;;25.50;5.33;;;10.70;1.00;;;;;;4937098;29;20450;-85
2023/11/16 10:55:16;;;;;;;30.83;5.80;;;10.70;1.00;;;;;;4954645;28;20216;-85
2023/11/16 10:57:43;;;;;;;23.03;5.87;;;10.80;1.00;;;;;;4956321;28;20934;-85
2023/11/16 11:00:16;;;;;;;18.30;6.00;;;10.70;1.00;;;;;;4939748;29;20451;-86
2023/11/16 11:02:44;;;;;;;16.93;5.20;;;10.70;1.00;;;;;;4950177;28;20449;-85
2023/11/16 11:05:11;;;;;;;19.03;5.87;;;10.80;1.00;;;;;;4956908;28;23570;-85
2023/11/16 11:07:49;;;;;;;24.10;5.13;;;10.80;1.00;;;;;;4941729;28;20446;-85
2023/11/16 11:10:17;;;;;;;20.37;5.07;;;10.70;48.00;;;;;;4940421;29;20465;-85
2023/11/16 11:12:47;;;;;;;19.53;5.60;;;10.60;99.90;;;;;;4943018;28;20445;-85
2023/11/16 11:15:49;;;;;;;24.50;4.00;;;10.50;99.90;;;;;;4948826;28;20527;-85
2023/11/16 11:18:24;;;;;;;13.83;3.70;;;10.40;82.30;;;;;;4893132;28;21180;-85
2023/11/16 11:20:52;;;;;;;15.27;3.70;;;10.40;50.80;;;;;;4939348;28;20500;-84
2023/11/16 11:23:18;;;;;;;11.33;4.37;;;10.40;99.90;;;;;;4940597;29;20437;-84
2023/11/16 11:25:44;;;;;;;10.70;3.53;;;10.50;1.00;;;;;;4945422;29;20500;-85
2023/11/16 11:28:15;;;;;;;11.90;3.70;;;10.40;1.00;;;;;;4969941;28;20445;-85
2023/11/16 11:30:54;;;;;;;13.97;3.50;;;10.30;99.90;;;;;;4957881;29;20460;-85
2023/11/16 11:33:42;;;;;;;14.23;4.73;;;10.20;99.90;;;;;;4947946;28;20460;-85
2023/11/16 11:36:16;;;;;;;13.53;3.83;;;10.20;99.90;;;;;;4958565;28;20477;-85
2023/11/16 11:38:46;;;;;;;16.77;4.20;;;10.10;1.00;;;;;;4947547;29;20441;-86
2023/11/16 11:41:12;;;;;;;14.40;3.60;;;10.10;1.00;;;;;;4959401;28;20532;-85
2023/11/16 11:43:39;;;;;;;15.17;3.80;;;10.10;99.90;;;;;;4946720;29;20905;-85
2023/11/16 11:46:09;;;;;;;15.07;4.10;;;10.10;99.90;;;;;;4946014;28;20536;-85
2023/11/16 11:48:39;;;;;;;10.50;4.23;;;10.00;99.90;;;;;;4965106;28;21042;-84
2023/11/16 11:51:08;;;;;;;14.83;5.00;;;10.10;1.00;;;;;;4971288;28;21159;-85
2023/11/16 11:53:34;;;;;;;15.13;4.10;;;10.10;99.90;;;;;;4952929;29;20447;-84
2023/11/16 11:56:06;;;;;;;16.83;4.50;;;10.20;99.90;;;;;;4950466;28;20849;-86
2023/11/16 11:58:36;;;;;;;13.50;4.40;;;10.00;99.90;;;;;;4965843;28;20448;-84
2023/11/16 12:01:02;;;;;;;14.53;4.40;;;10.00;1.00;;;;;;4945397;29;20689;-85
2023/11/16 12:03:28;;;;;;;10.00;3.67;;;10.00;34.50;;;;;;4948819;29;20448;-85
2023/11/16 12:06:00;;;;;;;10.13;3.90;;;10.00;99.90;;;;;;4951640;29;20888;-85
2023/11/16 12:08:43;;;;;;;10.97;3.80;;;9.90;1.00;;;;;;4968510;28;20197;-85
2023/11/16 12:11:14;;;;;;;8.53;4.13;;;9.90;1.00;;;;;;4952034;29;20971;-85
2023/11/16 12:13:42;;;;;;;11.50;4.23;;;9.80;60.10;;;;;;4967702;28;20441;-84
2023/11/16 12:16:09;;;;;;;11.83;4.60;;;9.80;1.00;;;;;;4945599;28;20476;-86
2023/11/16 12:18:41;;;;;;;15.30;6.57;;;9.90;1.00;;;;;;4959150;28;20445;-85
2023/11/16 12:21:17;;;;;;;17.80;4.77;;;9.90;97.80;;;;;;4966402;28;20464;-84
2023/11/16 12:23:49;;;;;;;24.37;8.00;;;9.90;1.00;;;;;;4948249;28;20875;-84
2023/11/16 12:26:23;;;;;;;20.23;7.03;;;9.80;99.90;;;;;;4944447;28;20441;-85
2023/11/16 12:31:21;;;;;;;15.37;6.30;;;9.80;1.00;;;;;;4910356;29;20482;-87
2023/11/16 12:33:48;;;;;;;10.13;4.53;;;9.80;10.40;;;;;;4914784;29;20454;-86
2023/11/16 12:36:25;;;;;;;12.83;4.03;;;9.90;4.00;;;;;;4915024;29;20506;-85
2023/11/16 12:38:52;;;;;;;17.50;4.40;;;9.90;99.90;;;;;;4915657;29;20439;-85
2023/11/16 12:41:19;;;;;;;13.43;4.17;;;9.90;99.90;;;;;;4914909;29;20471;-85
2023/11/16 12:43:45;;;;;;;12.30;4.17;;;10.00;79.70;;;;;;4914242;29;20454;-86
2023/11/16 12:46:11;;;;;;;18.23;4.40;;;10.10;1.00;;;;;;4914785;29;20443;-85
2023/11/16 12:48:40;;;;;;;15.13;3.60;;;10.20;99.90;;;;;;4915711;29;20828;-86
2023/11/16 12:51:07;;;;;;;11.63;4.67;;;10.10;99.90;;;;;;4929353;29;20461;-85
2023/11/16 12:53:35;;;;;;;15.90;4.47;;;10.00;99.90;;;;;;4919180;29;21035;-88
2023/11/16 12:56:01;;;;;;;18.80;4.50;;;10.00;1.00;;;;;;4929689;29;20466;-85
2023/11/16 12:58:28;;;;;;;18.90;4.73;;;10.10;99.90;;;;;;4910580;29;20505;-84
2023/11/16 13:00:56;;;;;;;7.73;4.23;;;10.10;99.90;;;;;;4915727;29;20480;-85